หน้าหลัก
METAR-TAF:

METAR-TAF

ท่าอากาศยาน :

ก็อง, ฝรั่งเศส

ละติจูด: 49-11N, ลองจิจูด: 000-27W, ความสูง: 78 ม.

การสังเกตสภาพอากาศปัจจุบัน

รายงานได้ทำขึ้นเมื่อ 25 นาทีที่แล้ว ณ เวลา 01:30 UTC
ลม 5 นอตจากตะวันออกเฉียงเหนือ, แปรผันระหว่างเหนือ และตะวันออก
อุณหภูมิ 15°C
ความชื้น 94%
ความกดอากาศ 1015 hPa
ทัศนวิสัย: 9000 ม.

METAR: LFRK 190130Z AUTO 04005KT 350V080 9000 NSC 15/14 Q1015

เวลา: 03:55 (01:55 UTC)

การพยากรณ์

รายงานได้ทำขึ้นเมื่อ 10 ชั่วโมงและ 10 นาทีที่แล้ว ณ เวลา 15:45 UTC
การพยากรณ์มีผลตั้งแต่วันที่ 18 ณ เวลา 15 UTC จนถึงวันที่ 18 ณ เวลา 24 UTC
ลม 8 นอตจากเหนือ
ทัศนวิสัย 10 กม. หรือมากกว่า
มีเมฆเป็นส่วนมากเว้นเป็นระยะที่ความสูง 2500 ฟุต
ความน่าจะเป็น 30% :
ชั่วคราว
ตั้งแต่วันที่ 18 ณ เวลา 15 UTC จนถึงวันที่ 18 ณ เวลา 24 UTC
ทัศนวิสัย: 4000 ม.
มีเมฆเป็นส่วนมากเว้นเป็นระยะที่ความสูง 1300 ฟุต
ฝนโปรยปราย,

TAF: LFRK 181545Z 1815/1824 36008KT 9999 BKN025 PROB30 TEMPO 1815/1824 4000 SHRA BKN013

สังเกตการณ์สภาพอากาศและพยากรณ์อากาศของสนามบินมากกว่า 4000 แห่ง (รายงาน METAR และ TAF).

สถานีที่ดูได้จะแสดงไว้ด้วยจุดสีเหลืองและสีแดงบนแผนที่.

เลื่อนเมาส์ไปเหนือจุดเพื่อดูชื่อสถานี.

แล้วคลิกเพื่อดูสังเกตการณ์และการพยากรณ์สภาพอากาศ.

ในการเปลี่ยนแผนที่: คลิกที่ปุ่มสีเขียวที่มีกากบาทสีดำเพื่อซูมเข้า; ที่ปุ่มสีเขียวที่มีขีดเพื่อซูมออก; หรือที่ลูกศรสีเขียวเพื่อไปยังแผนที่ที่อยู่ติดกัน.


METAR-TAF: